sensor_id;sensor_type;location;lat;lon;timestamp;P1;durP1;ratioP1;P2;durP2;ratioP2
78322;SDS011;67583;50.616;-3.404;2023-04-03T00:00:48;6.38;;;4.28;;
78322;SDS011;67583;50.616;-3.404;2023-04-03T00:03:14;6.82;;;4.32;;
78322;SDS011;67583;50.616;-3.404;2023-04-03T00:05:40;6.53;;;4.38;;
78322;SDS011;67583;50.616;-3.404;2023-04-03T00:08:06;6.68;;;4.15;;
78322;SDS011;67583;50.616;-3.404;2023-04-03T00:10:33;9.32;;;4.57;;
78322;SDS011;67583;50.616;-3.404;2023-04-03T00:12:58;10.75;;;5.38;;
78322;SDS011;67583;50.616;-3.404;2023-04-03T00:15:24;11.85;;;4.75;;
78322;SDS011;67583;50.616;-3.404;2023-04-03T00:20:15;9.13;;;4.07;;
78322;SDS011;67583;50.616;-3.404;2023-04-03T00:25:06;11.93;;;4.10;;
78322;SDS011;67583;50.616;-3.404;2023-04-03T00:29:57;7.73;;;3.93;;
78322;SDS011;67583;50.616;-3.404;2023-04-03T00:34:48;7.70;;;3.92;;
78322;SDS011;67583;50.616;-3.404;2023-04-03T00:37:13;6.40;;;3.95;;
78322;SDS011;67583;50.616;-3.404;2023-04-03T00:42:04;6.43;;;3.92;;
78322;SDS011;67583;50.616;-3.404;2023-04-03T00:46:58;7.85;;;4.68;;
78322;SDS011;67583;50.616;-3.404;2023-04-03T00:51:49;7.03;;;4.63;;
78322;SDS011;67583;50.616;-3.404;2023-04-03T00:56:40;12.40;;;6.20;;
78322;SDS011;67583;50.616;-3.404;2023-04-03T01:01:33;10.85;;;6.03;;
78322;SDS011;67583;50.616;-3.404;2023-04-03T01:04:00;9.85;;;6.47;;
78322;SDS011;67583;50.616;-3.404;2023-04-03T01:06:29;12.02;;;6.30;;
78322;SDS011;67583;50.616;-3.404;2023-04-03T01:08:57;10.48;;;6.90;;
78322;SDS011;67583;50.616;-3.404;2023-04-03T01:11:23;15.05;;;7.45;;
78322;SDS011;67583;50.616;-3.404;2023-04-03T01:13:49;9.52;;;6.97;;
78322;SDS011;67583;50.616;-3.404;2023-04-03T01:18:40;12.60;;;6.10;;
78322;SDS011;67583;50.616;-3.404;2023-04-03T01:26:23;11.27;;;6.63;;
78322;SDS011;67583;50.616;-3.404;2023-04-03T01:28:50;10.32;;;7.00;;
78322;SDS011;67583;50.616;-3.404;2023-04-03T01:31:20;12.52;;;8.18;;
78322;SDS011;67583;50.616;-3.404;2023-04-03T01:33:50;11.15;;;7.18;;
78322;SDS011;67583;50.616;-3.404;2023-04-03T01:36:18;15.35;;;7.20;;
78322;SDS011;67583;50.616;-3.404;2023-04-03T01:38:49;19.58;;;7.72;;
78322;SDS011;67583;50.616;-3.404;2023-04-03T01:43:40;13.32;;;7.47;;
78322;SDS011;67583;50.616;-3.404;2023-04-03T01:48:32;9.88;;;5.85;;
78322;SDS011;67583;50.616;-3.404;2023-04-03T01:53:23;16.60;;;7.27;;
78322;SDS011;67583;50.616;-3.404;2023-04-03T01:58:14;11.18;;;6.45;;
78322;SDS011;67583;50.616;-3.404;2023-04-03T02:03:05;11.97;;;6.87;;
78322;SDS011;67583;50.616;-3.404;2023-04-03T02:07:55;8.35;;;6.35;;
78322;SDS011;67583;50.616;-3.404;2023-04-03T02:10:21;10.27;;;5.55;;
78322;SDS011;67583;50.616;-3.404;2023-04-03T02:15:12;10.50;;;6.22;;
78322;SDS011;67583;50.616;-3.404;2023-04-03T02:20:03;7.40;;;4.77;;
78322;SDS011;67583;50.616;-3.404;2023-04-03T02:22:29;10.02;;;4.30;;
78322;SDS011;67583;50.616;-3.404;2023-04-03T02:24:54;10.93;;;4.72;;
78322;SDS011;67583;50.616;-3.404;2023-04-03T02:27:20;6.80;;;4.30;;
78322;SDS011;67583;50.616;-3.404;2023-04-03T02:29:45;8.70;;;4.03;;
78322;SDS011;67583;50.616;-3.404;2023-04-03T02:32:11;11.38;;;5.25;;
78322;SDS011;67583;50.616;-3.404;2023-04-03T02:34:36;7.70;;;4.75;;
78322;SDS011;67583;50.616;-3.404;2023-04-03T02:37:01;7.75;;;4.78;;
78322;SDS011;67583;50.616;-3.404;2023-04-03T02:41:52;9.65;;;5.05;;
78322;SDS011;67583;50.616;-3.404;2023-04-03T02:46:43;7.15;;;4.68;;
78322;SDS011;67583;50.616;-3.404;2023-04-03T02:49:09;10.70;;;4.55;;
78322;SDS011;67583;50.616;-3.404;2023-04-03T02:54:00;9.37;;;4.90;;
78322;SDS011;67583;50.616;-3.404;2023-04-03T02:56:25;9.50;;;4.47;;
78322;SDS011;67583;50.616;-3.404;2023-04-03T03:01:17;9.10;;;4.53;;
78322;SDS011;67583;50.616;-3.404;2023-04-03T03:03:42;9.68;;;4.25;;
78322;SDS011;67583;50.616;-3.404;2023-04-03T03:08:34;9.55;;;4.75;;
78322;SDS011;67583;50.616;-3.404;2023-04-03T03:11:00;9.38;;;4.10;;
78322;SDS011;67583;50.616;-3.404;2023-04-03T03:13:26;10.23;;;4.03;;
78322;SDS011;67583;50.616;-3.404;2023-04-03T03:15:51;10.05;;;4.57;;
78322;SDS011;67583;50.616;-3.404;2023-04-03T03:20:42;9.32;;;4.53;;
78322;SDS011;67583;50.616;-3.404;2023-04-03T03:25:33;7.27;;;4.07;;
78322;SDS011;67583;50.616;-3.404;2023-04-03T03:30:24;9.27;;;4.50;;
78322;SDS011;67583;50.616;-3.404;2023-04-03T03:32:50;10.23;;;4.82;;
78322;SDS011;67583;50.616;-3.404;2023-04-03T03:37:40;10.10;;;3.78;;
78322;SDS011;67583;50.616;-3.404;2023-04-03T03:42:31;5.70;;;3.20;;
78322;SDS011;67583;50.616;-3.404;2023-04-03T03:47:22;8.07;;;3.17;;
78322;SDS011;67583;50.616;-3.404;2023-04-03T03:52:13;8.13;;;3.58;;
78322;SDS011;67583;50.616;-3.404;2023-04-03T03:54:38;7.78;;;3.67;;
78322;SDS011;67583;50.616;-3.404;2023-04-03T03:59:29;9.13;;;2.83;;
78322;SDS011;67583;50.616;-3.404;2023-04-03T04:04:20;9.02;;;3.22;;
78322;SDS011;67583;50.616;-3.404;2023-04-03T04:09:11;9.55;;;3.00;;
78322;SDS011;67583;50.616;-3.404;2023-04-03T04:14:01;7.82;;;3.05;;
78322;SDS011;67583;50.616;-3.404;2023-04-03T04:16:27;9.68;;;3.22;;
78322;SDS011;67583;50.616;-3.404;2023-04-03T04:18:52;8.05;;;2.95;;
78322;SDS011;67583;50.616;-3.404;2023-04-03T04:23:43;10.73;;;3.08;;
78322;SDS011;67583;50.616;-3.404;2023-04-03T04:26:08;8.27;;;3.10;;
78322;SDS011;67583;50.616;-3.404;2023-04-03T04:30:59;14.80;;;3.13;;
78322;SDS011;67583;50.616;-3.404;2023-04-03T04:33:24;7.85;;;2.92;;
78322;SDS011;67583;50.616;-3.404;2023-04-03T04:35:50;6.95;;;2.80;;
78322;SDS011;67583;50.616;-3.404;2023-04-03T04:38:16;10.20;;;2.90;;
78322;SDS011;67583;50.616;-3.404;2023-04-03T04:40:42;8.80;;;2.88;;
78322;SDS011;67583;50.616;-3.404;2023-04-03T04:43:07;8.32;;;2.72;;
78322;SDS011;67583;50.616;-3.404;2023-04-03T04:45:32;6.55;;;2.47;;
78322;SDS011;67583;50.616;-3.404;2023-04-03T04:47:58;8.75;;;2.70;;
78322;SDS011;67583;50.616;-3.404;2023-04-03T04:50:23;10.90;;;2.95;;
78322;SDS011;67583;50.616;-3.404;2023-04-03T04:52:48;9.90;;;3.35;;
78322;SDS011;67583;50.616;-3.404;2023-04-03T04:55:14;14.40;;;3.10;;
78322;SDS011;67583;50.616;-3.404;2023-04-03T05:00:05;9.45;;;2.70;;
78322;SDS011;67583;50.616;-3.404;2023-04-03T05:02:31;11.60;;;3.25;;
78322;SDS011;67583;50.616;-3.404;2023-04-03T05:04:56;12.02;;;2.95;;
78322;SDS011;67583;50.616;-3.404;2023-04-03T05:07:22;10.10;;;2.92;;
78322;SDS011;67583;50.616;-3.404;2023-04-03T05:12:12;8.47;;;3.03;;
78322;SDS011;67583;50.616;-3.404;2023-04-03T05:14:38;7.05;;;2.40;;
78322;SDS011;67583;50.616;-3.404;2023-04-03T05:19:28;8.07;;;2.53;;
78322;SDS011;67583;50.616;-3.404;2023-04-03T05:24:19;8.07;;;3.08;;
78322;SDS011;67583;50.616;-3.404;2023-04-03T05:29:10;7.93;;;2.70;;
78322;SDS011;67583;50.616;-3.404;2023-04-03T05:34:01;9.38;;;3.70;;
78322;SDS011;67583;50.616;-3.404;2023-04-03T05:36:27;14.55;;;3.28;;
78322;SDS011;67583;50.616;-3.404;2023-04-03T05:38:53;11.57;;;3.05;;
78322;SDS011;67583;50.616;-3.404;2023-04-03T05:43:43;6.90;;;2.72;;
78322;SDS011;67583;50.616;-3.404;2023-04-03T05:48:37;13.65;;;4.30;;
78322;SDS011;67583;50.616;-3.404;2023-04-03T05:51:03;7.50;;;3.20;;
78322;SDS011;67583;50.616;-3.404;2023-04-03T05:53:30;10.63;;;3.05;;
78322;SDS011;67583;50.616;-3.404;2023-04-03T05:55:57;7.88;;;2.90;;
78322;SDS011;67583;50.616;-3.404;2023-04-03T05:58:22;6.22;;;2.97;;
78322;SDS011;67583;50.616;-3.404;2023-04-03T06:03:13;13.98;;;3.65;;
78322;SDS011;67583;50.616;-3.404;2023-04-03T06:05:38;7.50;;;2.33;;
78322;SDS011;67583;50.616;-3.404;2023-04-03T06:08:04;9.80;;;2.88;;
78322;SDS011;67583;50.616;-3.404;2023-04-03T06:10:30;9.15;;;3.22;;
78322;SDS011;67583;50.616;-3.404;2023-04-03T06:12:56;5.03;;;2.75;;
78322;SDS011;67583;50.616;-3.404;2023-04-03T06:17:47;7.00;;;2.83;;
78322;SDS011;67583;50.616;-3.404;2023-04-03T06:22:38;7.30;;;2.60;;
78322;SDS011;67583;50.616;-3.404;2023-04-03T06:27:29;4.65;;;2.42;;
78322;SDS011;67583;50.616;-3.404;2023-04-03T06:32:20;8.90;;;2.73;;
78322;SDS011;67583;50.616;-3.404;2023-04-03T06:37:18;3.60;;;1.90;;
78322;SDS011;67583;50.616;-3.404;2023-04-03T06:39:45;9.45;;;2.53;;
78322;SDS011;67583;50.616;-3.404;2023-04-03T06:44:36;6.53;;;2.10;;
78322;SDS011;67583;50.616;-3.404;2023-04-03T06:49:26;14.30;;;2.92;;
78322;SDS011;67583;50.616;-3.404;2023-04-03T06:54:18;10.32;;;2.28;;
78322;SDS011;67583;50.616;-3.404;2023-04-03T06:56:43;10.50;;;3.58;;
78322;SDS011;67583;50.616;-3.404;2023-04-03T06:59:10;9.23;;;3.25;;
78322;SDS011;67583;50.616;-3.404;2023-04-03T07:01:37;9.25;;;4.07;;
78322;SDS011;67583;50.616;-3.404;2023-04-03T07:06:28;7.10;;;2.53;;
78322;SDS011;67583;50.616;-3.404;2023-04-03T07:11:19;11.85;;;2.60;;
78322;SDS011;67583;50.616;-3.404;2023-04-03T07:16:10;5.65;;;2.47;;
78322;SDS011;67583;50.616;-3.404;2023-04-03T07:21:01;5.70;;;2.50;;
78322;SDS011;67583;50.616;-3.404;2023-04-03T07:23:27;9.13;;;2.55;;
78322;SDS011;67583;50.616;-3.404;2023-04-03T07:28:19;8.07;;;2.65;;
78322;SDS011;67583;50.616;-3.404;2023-04-03T07:30:46;9.18;;;2.90;;
78322;SDS011;67583;50.616;-3.404;2023-04-03T07:33:13;6.25;;;2.42;;
78322;SDS011;67583;50.616;-3.404;2023-04-03T07:35:39;5.82;;;3.28;;
78322;SDS011;67583;50.616;-3.404;2023-04-03T07:40:31;8.27;;;2.50;;
78322;SDS011;67583;50.616;-3.404;2023-04-03T07:42:57;4.97;;;2.67;;
78322;SDS011;67583;50.616;-3.404;2023-04-03T07:45:23;8.52;;;2.85;;
78322;SDS011;67583;50.616;-3.404;2023-04-03T07:47:49;7.25;;;2.35;;
78322;SDS011;67583;50.616;-3.404;2023-04-03T07:50:14;8.18;;;2.50;;
78322;SDS011;67583;50.616;-3.404;2023-04-03T07:52:40;6.68;;;2.40;;
78322;SDS011;67583;50.616;-3.404;2023-04-03T07:57:31;10.48;;;2.97;;
78322;SDS011;67583;50.616;-3.404;2023-04-03T08:02:22;5.00;;;2.00;;
78322;SDS011;67583;50.616;-3.404;2023-04-03T08:07:12;14.63;;;2.43;;
78322;SDS011;67583;50.616;-3.404;2023-04-03T08:09:38;6.53;;;2.53;;
78322;SDS011;67583;50.616;-3.404;2023-04-03T08:14:30;7.32;;;1.80;;
78322;SDS011;67583;50.616;-3.404;2023-04-03T08:16:56;10.35;;;2.22;;
78322;SDS011;67583;50.616;-3.404;2023-04-03T08:19:23;8.00;;;2.90;;
78322;SDS011;67583;50.616;-3.404;2023-04-03T08:24:13;8.03;;;2.07;;
78322;SDS011;67583;50.616;-3.404;2023-04-03T08:29:04;6.35;;;1.92;;
78322;SDS011;67583;50.616;-3.404;2023-04-03T08:33:56;8.87;;;2.50;;
78322;SDS011;67583;50.616;-3.404;2023-04-03T08:36:23;7.07;;;2.10;;
78322;SDS011;67583;50.616;-3.404;2023-04-03T08:38:51;6.22;;;2.15;;
78322;SDS011;67583;50.616;-3.404;2023-04-03T08:43:54;6.60;;;2.10;;
78322;SDS011;67583;50.616;-3.404;2023-04-03T08:46:23;7.30;;;3.20;;
78322;SDS011;67583;50.616;-3.404;2023-04-03T08:48:55;5.20;;;2.03;;
78322;SDS011;67583;50.616;-3.404;2023-04-03T08:51:22;10.43;;;3.65;;
78322;SDS011;67583;50.616;-3.404;2023-04-03T08:53:55;9.38;;;1.80;;
78322;SDS011;67583;50.616;-3.404;2023-04-03T08:56:22;4.70;;;1.80;;
78322;SDS011;67583;50.616;-3.404;2023-04-03T09:01:26;5.03;;;1.85;;
78322;SDS011;67583;50.616;-3.404;2023-04-03T09:03:54;5.57;;;2.13;;
78322;SDS011;67583;50.616;-3.404;2023-04-03T09:06:20;6.75;;;2.08;;
78322;SDS011;67583;50.616;-3.404;2023-04-03T09:14:26;8.43;;;2.35;;
78322;SDS011;67583;50.616;-3.404;2023-04-03T09:16:58;9.93;;;2.45;;
78322;SDS011;67583;50.616;-3.404;2023-04-03T09:21:57;4.32;;;2.05;;
78322;SDS011;67583;50.616;-3.404;2023-04-03T09:24:32;9.10;;;3.33;;
78322;SDS011;67583;50.616;-3.404;2023-04-03T09:27:03;6.57;;;2.03;;
78322;SDS011;67583;50.616;-3.404;2023-04-03T09:29:38;9.88;;;2.50;;
78322;SDS011;67583;50.616;-3.404;2023-04-03T09:32:18;10.05;;;1.95;;
78322;SDS011;67583;50.616;-3.404;2023-04-03T09:34:50;7.07;;;1.92;;
78322;SDS011;67583;50.616;-3.404;2023-04-03T09:40:30;7.15;;;2.13;;
78322;SDS011;67583;50.616;-3.404;2023-04-03T09:43:01;8.02;;;2.10;;
78322;SDS011;67583;50.616;-3.404;2023-04-03T09:45:35;7.22;;;2.28;;
78322;SDS011;67583;50.616;-3.404;2023-04-03T09:55:55;5.55;;;2.10;;
78322;SDS011;67583;50.616;-3.404;2023-04-03T09:58:27;6.20;;;2.20;;
78322;SDS011;67583;50.616;-3.404;2023-04-03T10:00:56;6.97;;;1.70;;
78322;SDS011;67583;50.616;-3.404;2023-04-03T10:05:54;3.67;;;1.90;;
78322;SDS011;67583;50.616;-3.404;2023-04-03T10:08:22;7.93;;;2.13;;
78322;SDS011;67583;50.616;-3.404;2023-04-03T10:11:05;7.25;;;2.55;;
78322;SDS011;67583;50.616;-3.404;2023-04-03T10:13:35;5.70;;;2.28;;
78322;SDS011;67583;50.616;-3.404;2023-04-03T10:16:08;7.43;;;2.20;;
78322;SDS011;67583;50.616;-3.404;2023-04-03T10:18:45;8.75;;;2.38;;
78322;SDS011;67583;50.616;-3.404;2023-04-03T10:23:49;7.05;;;1.92;;
78322;SDS011;67583;50.616;-3.404;2023-04-03T10:26:22;9.18;;;2.45;;
78322;SDS011;67583;50.616;-3.404;2023-04-03T10:34:39;9.00;;;1.70;;
78322;SDS011;67583;50.616;-3.404;2023-04-03T10:37:25;5.60;;;2.17;;
78322;SDS011;67583;50.616;-3.404;2023-04-03T10:45:29;6.60;;;1.95;;
78322;SDS011;67583;50.616;-3.404;2023-04-03T10:48:18;10.35;;;2.25;;
78322;SDS011;67583;50.616;-3.404;2023-04-03T10:54:00;8.32;;;2.30;;
78322;SDS011;67583;50.616;-3.404;2023-04-03T10:56:48;6.43;;;2.10;;
78322;SDS011;67583;50.616;-3.404;2023-04-03T11:01:58;7.65;;;2.17;;
78322;SDS011;67583;50.616;-3.404;2023-04-03T11:04:26;4.63;;;2.13;;
78322;SDS011;67583;50.616;-3.404;2023-04-03T11:06:54;4.32;;;1.77;;
78322;SDS011;67583;50.616;-3.404;2023-04-03T11:09:27;5.70;;;2.00;;
78322;SDS011;67583;50.616;-3.404;2023-04-03T11:12:04;3.72;;;1.80;;
78322;SDS011;67583;50.616;-3.404;2023-04-03T11:14:35;7.88;;;1.85;;
78322;SDS011;67583;50.616;-3.404;2023-04-03T11:17:04;6.57;;;1.92;;
78322;SDS011;67583;50.616;-3.404;2023-04-03T11:19:52;7.68;;;1.88;;
78322;SDS011;67583;50.616;-3.404;2023-04-03T11:22:24;6.55;;;2.38;;
78322;SDS011;67583;50.616;-3.404;2023-04-03T11:25:15;13.60;;;2.33;;
78322;SDS011;67583;50.616;-3.404;2023-04-03T11:27:56;6.05;;;2.13;;
78322;SDS011;67583;50.616;-3.404;2023-04-03T11:36:05;7.20;;;2.22;;
78322;SDS011;67583;50.616;-3.404;2023-04-03T11:38:33;3.97;;;2.35;;
78322;SDS011;67583;50.616;-3.404;2023-04-03T11:41:02;7.95;;;2.13;;
78322;SDS011;67583;50.616;-3.404;2023-04-03T11:43:29;9.65;;;2.60;;
78322;SDS011;67583;50.616;-3.404;2023-04-03T11:46:05;10.32;;;2.50;;
78322;SDS011;67583;50.616;-3.404;2023-04-03T11:51:00;6.32;;;1.98;;
78322;SDS011;67583;50.616;-3.404;2023-04-03T11:58:26;8.80;;;3.70;;
78322;SDS011;67583;50.616;-3.404;2023-04-03T12:00:58;8.18;;;2.58;;
78322;SDS011;67583;50.616;-3.404;2023-04-03T12:13:41;4.43;;;2.30;;
78322;SDS011;67583;50.616;-3.404;2023-04-03T12:29:24;10.57;;;3.70;;
78322;SDS011;67583;50.616;-3.404;2023-04-03T12:34:42;9.25;;;3.92;;
78322;SDS011;67583;50.616;-3.404;2023-04-03T12:39:55;6.72;;;3.88;;
78322;SDS011;67583;50.616;-3.404;2023-04-03T12:51:19;11.00;;;7.63;;
78322;SDS011;67583;50.616;-3.404;2023-04-03T12:53:48;9.90;;;5.40;;
78322;SDS011;67583;50.616;-3.404;2023-04-03T12:59:13;11.18;;;6.28;;
78322;SDS011;67583;50.616;-3.404;2023-04-03T13:01:38;15.15;;;7.38;;
78322;SDS011;67583;50.616;-3.404;2023-04-03T13:04:03;18.42;;;6.03;;
78322;SDS011;67583;50.616;-3.404;2023-04-03T13:06:36;11.13;;;5.38;;
78322;SDS011;67583;50.616;-3.404;2023-04-03T13:09:04;7.07;;;4.38;;
78322;SDS011;67583;50.616;-3.404;2023-04-03T13:11:32;10.20;;;4.80;;
78322;SDS011;67583;50.616;-3.404;2023-04-03T13:14:02;9.48;;;4.63;;
78322;SDS011;67583;50.616;-3.404;2023-04-03T13:16:30;4.80;;;3.45;;
78322;SDS011;67583;50.616;-3.404;2023-04-03T13:18:56;10.00;;;5.68;;
78322;SDS011;67583;50.616;-3.404;2023-04-03T13:21:28;21.08;;;6.13;;
78322;SDS011;67583;50.616;-3.404;2023-04-03T13:23:56;8.88;;;3.80;;
78322;SDS011;67583;50.616;-3.404;2023-04-03T13:26:25;8.10;;;3.92;;
78322;SDS011;67583;50.616;-3.404;2023-04-03T13:29:02;9.55;;;4.93;;
78322;SDS011;67583;50.616;-3.404;2023-04-03T13:31:32;9.10;;;4.60;;
78322;SDS011;67583;50.616;-3.404;2023-04-03T13:36:55;10.88;;;5.20;;
78322;SDS011;67583;50.616;-3.404;2023-04-03T13:41:56;9.00;;;4.40;;
78322;SDS011;67583;50.616;-3.404;2023-04-03T13:46:58;6.97;;;3.85;;
78322;SDS011;67583;50.616;-3.404;2023-04-03T13:52:03;7.88;;;3.35;;
78322;SDS011;67583;50.616;-3.404;2023-04-03T13:54:52;7.13;;;3.80;;
78322;SDS011;67583;50.616;-3.404;2023-04-03T13:57:20;19.98;;;5.82;;
78322;SDS011;67583;50.616;-3.404;2023-04-03T13:59:45;10.63;;;3.08;;
78322;SDS011;67583;50.616;-3.404;2023-04-03T14:02:18;12.10;;;4.22;;
78322;SDS011;67583;50.616;-3.404;2023-04-03T14:04:55;9.30;;;5.03;;
78322;SDS011;67583;50.616;-3.404;2023-04-03T14:07:25;6.95;;;3.47;;
78322;SDS011;67583;50.616;-3.404;2023-04-03T14:09:51;8.48;;;3.20;;
78322;SDS011;67583;50.616;-3.404;2023-04-03T14:12:18;8.23;;;3.05;;
78322;SDS011;67583;50.616;-3.404;2023-04-03T14:14:45;6.93;;;3.17;;
78322;SDS011;67583;50.616;-3.404;2023-04-03T14:17:18;6.22;;;3.03;;
78322;SDS011;67583;50.616;-3.404;2023-04-03T14:19:46;10.88;;;3.67;;
78322;SDS011;67583;50.616;-3.404;2023-04-03T14:22:17;8.80;;;3.10;;
78322;SDS011;67583;50.616;-3.404;2023-04-03T14:24:48;4.22;;;2.40;;
78322;SDS011;67583;50.616;-3.404;2023-04-03T14:27:22;7.28;;;2.80;;
78322;SDS011;67583;50.616;-3.404;2023-04-03T14:29:50;6.95;;;3.15;;
78322;SDS011;67583;50.616;-3.404;2023-04-03T14:32:17;5.90;;;2.70;;
78322;SDS011;67583;50.616;-3.404;2023-04-03T14:34:44;7.55;;;2.95;;
78322;SDS011;67583;50.616;-3.404;2023-04-03T14:37:10;6.18;;;2.80;;
78322;SDS011;67583;50.616;-3.404;2023-04-03T14:39:43;7.43;;;2.50;;
78322;SDS011;67583;50.616;-3.404;2023-04-03T14:42:13;3.45;;;2.28;;
78322;SDS011;67583;50.616;-3.404;2023-04-03T14:44:40;7.57;;;2.63;;
78322;SDS011;67583;50.616;-3.404;2023-04-03T14:47:09;6.78;;;2.60;;
78322;SDS011;67583;50.616;-3.404;2023-04-03T14:49:35;6.18;;;2.65;;
78322;SDS011;67583;50.616;-3.404;2023-04-03T14:52:00;8.13;;;4.55;;
78322;SDS011;67583;50.616;-3.404;2023-04-03T14:54:26;5.75;;;2.83;;
78322;SDS011;67583;50.616;-3.404;2023-04-03T14:56:53;4.72;;;2.83;;
78322;SDS011;67583;50.616;-3.404;2023-04-03T14:59:20;6.28;;;2.60;;
78322;SDS011;67583;50.616;-3.404;2023-04-03T15:01:46;7.15;;;2.90;;
78322;SDS011;67583;50.616;-3.404;2023-04-03T15:04:12;6.10;;;2.95;;
78322;SDS011;67583;50.616;-3.404;2023-04-03T15:06:39;6.68;;;2.50;;
78322;SDS011;67583;50.616;-3.404;2023-04-03T15:09:05;5.35;;;2.88;;
78322;SDS011;67583;50.616;-3.404;2023-04-03T15:11:37;10.77;;;2.67;;
78322;SDS011;67583;50.616;-3.404;2023-04-03T15:14:02;7.20;;;3.25;;
78322;SDS011;67583;50.616;-3.404;2023-04-03T15:16:28;5.75;;;2.70;;
78322;SDS011;67583;50.616;-3.404;2023-04-03T15:18:53;8.90;;;2.97;;
78322;SDS011;67583;50.616;-3.404;2023-04-03T15:21:19;6.70;;;2.78;;
78322;SDS011;67583;50.616;-3.404;2023-04-03T15:23:44;8.70;;;3.45;;
78322;SDS011;67583;50.616;-3.404;2023-04-03T15:26:10;7.00;;;3.05;;
78322;SDS011;67583;50.616;-3.404;2023-04-03T15:31:02;10.90;;;2.58;;
78322;SDS011;67583;50.616;-3.404;2023-04-03T15:33:28;7.05;;;2.50;;
78322;SDS011;67583;50.616;-3.404;2023-04-03T15:35:53;7.90;;;2.63;;
78322;SDS011;67583;50.616;-3.404;2023-04-03T15:38:19;5.28;;;2.83;;
78322;SDS011;67583;50.616;-3.404;2023-04-03T15:40:44;7.22;;;3.08;;
78322;SDS011;67583;50.616;-3.404;2023-04-03T15:43:12;5.88;;;2.90;;
78322;SDS011;67583;50.616;-3.404;2023-04-03T15:45:37;8.95;;;3.05;;
78322;SDS011;67583;50.616;-3.404;2023-04-03T15:48:03;5.35;;;3.10;;
78322;SDS011;67583;50.616;-3.404;2023-04-03T15:50:29;6.53;;;3.35;;
78322;SDS011;67583;50.616;-3.404;2023-04-03T15:52:56;4.03;;;2.70;;
78322;SDS011;67583;50.616;-3.404;2023-04-03T15:55:26;7.18;;;2.92;;
78322;SDS011;67583;50.616;-3.404;2023-04-03T15:57:55;7.70;;;4.55;;
78322;SDS011;67583;50.616;-3.404;2023-04-03T16:00:21;8.05;;;2.88;;
78322;SDS011;67583;50.616;-3.404;2023-04-03T16:02:48;5.05;;;2.83;;
78322;SDS011;67583;50.616;-3.404;2023-04-03T16:05:16;8.27;;;3.65;;
78322;SDS011;67583;50.616;-3.404;2023-04-03T16:07:42;7.72;;;3.55;;
78322;SDS011;67583;50.616;-3.404;2023-04-03T16:10:08;10.50;;;3.58;;
78322;SDS011;67583;50.616;-3.404;2023-04-03T16:12:34;8.60;;;3.80;;
78322;SDS011;67583;50.616;-3.404;2023-04-03T16:15:00;10.65;;;3.22;;
78322;SDS011;67583;50.616;-3.404;2023-04-03T16:17:26;9.38;;;3.95;;
78322;SDS011;67583;50.616;-3.404;2023-04-03T16:19:52;5.80;;;3.40;;
78322;SDS011;67583;50.616;-3.404;2023-04-03T16:22:19;8.13;;;3.38;;
78322;SDS011;67583;50.616;-3.404;2023-04-03T16:24:44;7.10;;;3.58;;
78322;SDS011;67583;50.616;-3.404;2023-04-03T16:27:10;7.22;;;3.58;;
78322;SDS011;67583;50.616;-3.404;2023-04-03T16:29:35;9.13;;;3.85;;
78322;SDS011;67583;50.616;-3.404;2023-04-03T16:32:01;8.65;;;3.47;;
78322;SDS011;67583;50.616;-3.404;2023-04-03T16:34:27;10.55;;;4.03;;
78322;SDS011;67583;50.616;-3.404;2023-04-03T16:36:55;6.57;;;3.75;;
78322;SDS011;67583;50.616;-3.404;2023-04-03T16:39:20;6.00;;;4.00;;
78322;SDS011;67583;50.616;-3.404;2023-04-03T16:41:46;7.80;;;4.03;;
78322;SDS011;67583;50.616;-3.404;2023-04-03T16:44:11;8.52;;;4.40;;
78322;SDS011;67583;50.616;-3.404;2023-04-03T16:46:37;12.43;;;4.30;;
78322;SDS011;67583;50.616;-3.404;2023-04-03T16:49:03;7.10;;;3.95;;
78322;SDS011;67583;50.616;-3.404;2023-04-03T16:51:28;8.45;;;5.15;;
78322;SDS011;67583;50.616;-3.404;2023-04-03T16:53:54;9.80;;;4.68;;
78322;SDS011;67583;50.616;-3.404;2023-04-03T16:56:20;9.93;;;3.83;;
78322;SDS011;67583;50.616;-3.404;2023-04-03T16:58:47;15.98;;;6.22;;
78322;SDS011;67583;50.616;-3.404;2023-04-03T17:01:16;9.70;;;4.50;;
78322;SDS011;67583;50.616;-3.404;2023-04-03T17:03:43;6.60;;;3.25;;
78322;SDS011;67583;50.616;-3.404;2023-04-03T17:06:09;10.80;;;4.10;;
78322;SDS011;67583;50.616;-3.404;2023-04-03T17:08:41;11.10;;;4.20;;
78322;SDS011;67583;50.616;-3.404;2023-04-03T17:11:06;9.18;;;4.10;;
78322;SDS011;67583;50.616;-3.404;2023-04-03T17:13:32;6.90;;;3.53;;
78322;SDS011;67583;50.616;-3.404;2023-04-03T17:15:59;7.72;;;4.38;;
78322;SDS011;67583;50.616;-3.404;2023-04-03T17:18:25;7.85;;;3.70;;
78322;SDS011;67583;50.616;-3.404;2023-04-03T17:20:51;10.40;;;4.00;;
78322;SDS011;67583;50.616;-3.404;2023-04-03T17:23:16;7.60;;;3.75;;
78322;SDS011;67583;50.616;-3.404;2023-04-03T17:25:42;7.85;;;3.08;;
78322;SDS011;67583;50.616;-3.404;2023-04-03T17:28:07;8.82;;;3.03;;
78322;SDS011;67583;50.616;-3.404;2023-04-03T17:30:33;12.85;;;10.68;;
78322;SDS011;67583;50.616;-3.404;2023-04-03T17:32:58;16.35;;;10.40;;
78322;SDS011;67583;50.616;-3.404;2023-04-03T17:35:24;13.82;;;12.55;;
78322;SDS011;67583;50.616;-3.404;2023-04-03T17:37:49;10.02;;;3.55;;
78322;SDS011;67583;50.616;-3.404;2023-04-03T17:40:15;6.55;;;3.30;;
78322;SDS011;67583;50.616;-3.404;2023-04-03T17:42:42;7.53;;;3.28;;
78322;SDS011;67583;50.616;-3.404;2023-04-03T17:45:08;5.82;;;2.55;;
78322;SDS011;67583;50.616;-3.404;2023-04-03T17:47:33;11.43;;;3.97;;
78322;SDS011;67583;50.616;-3.404;2023-04-03T17:49:59;8.35;;;3.58;;
78322;SDS011;67583;50.616;-3.404;2023-04-03T17:52:24;10.23;;;3.40;;
78322;SDS011;67583;50.616;-3.404;2023-04-03T17:54:52;11.30;;;3.13;;
78322;SDS011;67583;50.616;-3.404;2023-04-03T17:57:18;7.05;;;3.78;;
78322;SDS011;67583;50.616;-3.404;2023-04-03T17:59:43;10.48;;;3.17;;
78322;SDS011;67583;50.616;-3.404;2023-04-03T18:02:09;10.20;;;3.95;;
78322;SDS011;67583;50.616;-3.404;2023-04-03T18:04:34;8.10;;;2.83;;
78322;SDS011;67583;50.616;-3.404;2023-04-03T18:07:00;7.15;;;3.83;;
78322;SDS011;67583;50.616;-3.404;2023-04-03T18:09:28;10.05;;;4.55;;
78322;SDS011;67583;50.616;-3.404;2023-04-03T18:11:55;7.95;;;2.80;;
78322;SDS011;67583;50.616;-3.404;2023-04-03T18:14:21;7.07;;;3.67;;
78322;SDS011;67583;50.616;-3.404;2023-04-03T18:16:48;12.57;;;4.13;;
78322;SDS011;67583;50.616;-3.404;2023-04-03T18:19:13;10.25;;;4.10;;
78322;SDS011;67583;50.616;-3.404;2023-04-03T18:21:39;7.22;;;3.50;;
78322;SDS011;67583;50.616;-3.404;2023-04-03T18:24:05;10.10;;;4.07;;
78322;SDS011;67583;50.616;-3.404;2023-04-03T18:26:31;8.10;;;3.88;;
78322;SDS011;67583;50.616;-3.404;2023-04-03T18:28:59;6.07;;;2.90;;
78322;SDS011;67583;50.616;-3.404;2023-04-03T18:31:25;6.97;;;3.05;;
78322;SDS011;67583;50.616;-3.404;2023-04-03T18:33:52;8.07;;;2.83;;
78322;SDS011;67583;50.616;-3.404;2023-04-03T18:36:19;15.27;;;10.48;;
78322;SDS011;67583;50.616;-3.404;2023-04-03T18:38:45;10.07;;;3.88;;
78322;SDS011;67583;50.616;-3.404;2023-04-03T18:41:10;6.75;;;3.08;;
78322;SDS011;67583;50.616;-3.404;2023-04-03T18:43:35;9.85;;;3.92;;
78322;SDS011;67583;50.616;-3.404;2023-04-03T18:46:01;7.50;;;4.50;;
78322;SDS011;67583;50.616;-3.404;2023-04-03T18:48:29;11.15;;;4.85;;
78322;SDS011;67583;50.616;-3.404;2023-04-03T18:50:54;12.00;;;4.85;;
78322;SDS011;67583;50.616;-3.404;2023-04-03T18:53:20;6.45;;;2.67;;
78322;SDS011;67583;50.616;-3.404;2023-04-03T18:55:46;10.32;;;3.05;;
78322;SDS011;67583;50.616;-3.404;2023-04-03T18:58:12;5.95;;;3.63;;
78322;SDS011;67583;50.616;-3.404;2023-04-03T19:00:37;7.53;;;4.00;;
78322;SDS011;67583;50.616;-3.404;2023-04-03T19:03:03;8.93;;;3.38;;
78322;SDS011;67583;50.616;-3.404;2023-04-03T19:05:29;5.22;;;2.97;;
78322;SDS011;67583;50.616;-3.404;2023-04-03T19:07:55;6.47;;;2.50;;
78322;SDS011;67583;50.616;-3.404;2023-04-03T19:10:21;6.22;;;2.65;;